createdAt,value
2023-05-23T00:01:55.224Z,99925.13
2023-05-23T00:04:22.568Z,99927.56
2023-05-23T00:06:50.700Z,99924.06
2023-05-23T00:09:18.023Z,99926.53
2023-05-23T00:11:45.941Z,99928.16
2023-05-23T00:14:14.974Z,99923.75
2023-05-23T00:16:44.740Z,99922.84
2023-05-23T00:19:15.217Z,99915.16
2023-05-23T00:21:56.828Z,99916.91
2023-05-23T00:24:24.475Z,99917.94
2023-05-23T00:26:51.558Z,99924.78
2023-05-23T00:29:19.626Z,99922.22
2023-05-23T00:31:47.474Z,99922.19
2023-05-23T00:34:17.528Z,99927.25
2023-05-23T00:36:47.425Z,99928.91
2023-05-23T00:39:20.792Z,99927.97
2023-05-23T00:41:52.730Z,99931.47
2023-05-23T00:44:21.671Z,99925.63
2023-05-23T00:46:57.687Z,99921.56
2023-05-23T00:49:28.156Z,99917.41
2023-05-23T00:51:55.979Z,99915.88
2023-05-23T00:54:29.572Z,99918.53
2023-05-23T00:56:57.581Z,99917.91
2023-05-23T00:59:26.364Z,99923.13
2023-05-23T01:01:56.648Z,99930.06
2023-05-23T01:04:28.159Z,99931.91
2023-05-23T01:06:56.398Z,99938.91
2023-05-23T01:09:27.308Z,99943.28
2023-05-23T01:12:15.844Z,99944.28
2023-05-23T01:15:06.545Z,99946.16
2023-05-23T01:18:12.321Z,99950.53
2023-05-23T01:20:49.016Z,99947.09
2023-05-23T01:23:55.761Z,99944.53
2023-05-23T01:27:17.717Z,99946.19
2023-05-23T01:29:50.426Z,99947.03
2023-05-23T01:32:19.126Z,99951.16
2023-05-23T01:34:48.265Z,99944.19
2023-05-23T01:37:18.598Z,99949.28
2023-05-23T01:39:46.798Z,99948.31
2023-05-23T01:42:15.864Z,99944.06
2023-05-23T01:44:45.436Z,99947.41
2023-05-23T01:47:14.421Z,99950.81
2023-05-23T01:49:44.878Z,99957.63
2023-05-23T01:52:13.298Z,99954.19
2023-05-23T01:54:42.433Z,99959.25
2023-05-23T01:57:11.944Z,99963.50
2023-05-23T01:59:39.180Z,99964.31
2023-05-23T02:02:06.559Z,99965.09
2023-05-23T02:04:34.014Z,99977.91
2023-05-23T02:07:01.189Z,99977.91
2023-05-23T02:09:28.265Z,99976.28
2023-05-23T02:11:55.542Z,99980.59
2023-05-23T02:14:23.912Z,99978.06
2023-05-23T02:16:52.754Z,99981.41
2023-05-23T02:19:20.845Z,99982.31
2023-05-23T02:21:47.942Z,99987.41
2023-05-23T02:24:15.016Z,99986.53
2023-05-23T02:26:42.172Z,99979.69
2023-05-23T02:29:09.214Z,99987.31
2023-05-23T02:31:36.792Z,99978.84
2023-05-23T02:34:03.949Z,99984.72
2023-05-23T02:36:33.269Z,99988.13
2023-05-23T02:39:00.437Z,99990.69
2023-05-23T02:41:27.549Z,99994.09
2023-05-23T02:43:55.006Z,99997.47
2023-05-23T02:46:22.159Z,99997.47
2023-05-23T02:48:49.301Z,99998.28
2023-05-23T02:51:16.358Z,100001.72
2023-05-23T02:53:43.446Z,99995.81
2023-05-23T02:56:11.602Z,99997.53
2023-05-23T02:58:39.872Z,99997.53
2023-05-23T03:01:08.334Z,100005.25
2023-05-23T03:03:36.594Z,100003.59
2023-05-23T03:06:06.801Z,99997.66
2023-05-23T03:08:33.876Z,100006.19
2023-05-23T03:11:01.061Z,100005.38
2023-05-23T03:13:28.975Z,99997.69
2023-05-23T03:15:56.302Z,100001.94
2023-05-23T03:18:23.563Z,99999.44
2023-05-23T03:20:50.756Z,100006.28
2023-05-23T03:23:17.935Z,100013.97
2023-05-23T03:25:45.655Z,100017.44
2023-05-23T03:28:12.975Z,100016.56
2023-05-23T03:30:40.117Z,100014.88
2023-05-23T03:33:07.561Z,100016.63
2023-05-23T03:35:35.019Z,100027.75
2023-05-23T03:38:02.405Z,100026.13
2023-05-23T03:40:29.650Z,100025.28
2023-05-23T03:43:07.207Z,100021.03
2023-05-23T03:45:36.884Z,100026.19
2023-05-23T03:48:11.082Z,100031.31
2023-05-23T03:50:38.506Z,100028.78
2023-05-23T03:53:07.344Z,100034.78
2023-05-23T03:55:34.706Z,100038.22
2023-05-23T03:58:02.375Z,100039.09
2023-05-23T04:00:29.643Z,100040.81
2023-05-23T04:02:59.327Z,100046.75
2023-05-23T04:05:27.028Z,100048.53
2023-05-23T04:07:54.238Z,100044.31
2023-05-23T04:10:21.448Z,100045.97
2023-05-23T04:12:48.747Z,100049.41
2023-05-23T04:15:18.183Z,100052.81
2023-05-23T04:18:11.625Z,100048.75
2023-05-23T04:20:38.950Z,100055.59
2023-05-23T04:23:06.030Z,100048.00
2023-05-23T04:25:36.339Z,100055.66
2023-05-23T04:28:14.090Z,100066.81
2023-05-23T04:30:42.606Z,100057.41
2023-05-23T04:33:10.163Z,100047.16
2023-05-23T04:35:40.726Z,100042.09
2023-05-23T04:38:08.459Z,100043.78
2023-05-23T04:40:36.091Z,100048.91
2023-05-23T04:43:43.311Z,100050.63
2023-05-23T04:46:30.603Z,100044.72
2023-05-23T04:49:11.117Z,100048.06
2023-05-23T04:51:38.697Z,100047.22
2023-05-23T04:54:21.742Z,100053.16
2023-05-23T04:56:49.065Z,100045.47
2023-05-23T04:59:18.765Z,100052.22
2023-05-23T05:01:45.831Z,100053.03
2023-05-23T05:04:14.151Z,100050.38
2023-05-23T05:06:41.966Z,100060.50
2023-05-23T05:09:09.759Z,100051.97
2023-05-23T05:11:36.796Z,100054.41
2023-05-23T05:14:03.803Z,100056.06
2023-05-23T05:16:30.849Z,100060.25
2023-05-23T05:18:58.107Z,100065.28
2023-05-23T05:21:25.256Z,100059.25
2023-05-23T05:23:52.762Z,100072.00
2023-05-23T05:26:19.875Z,100068.56
2023-05-23T05:28:49.252Z,100077.88
2023-05-23T05:31:16.282Z,100073.59
2023-05-23T05:33:45.902Z,100071.00
2023-05-23T05:36:14.874Z,100080.31
2023-05-23T05:38:42.229Z,100072.59
2023-05-23T05:41:09.602Z,100076.81
2023-05-23T05:43:40.537Z,100079.28
2023-05-23T05:46:07.834Z,100084.38
2023-05-23T05:48:35.622Z,100085.19
2023-05-23T05:51:06.975Z,100087.72
2023-05-23T05:53:34.832Z,100091.09
2023-05-23T05:56:02.581Z,100080.81
2023-05-23T05:58:30.799Z,100090.16
2023-05-23T06:01:01.510Z,100096.91
2023-05-23T06:03:29.138Z,100096.00
2023-05-23T06:05:57.342Z,100094.22
2023-05-23T06:08:24.410Z,100098.44
2023-05-23T06:10:52.021Z,100105.25
2023-05-23T06:13:19.019Z,100106.09
2023-05-23T06:15:51.877Z,100104.44
2023-05-23T06:18:19.269Z,100107.81
2023-05-23T06:20:46.337Z,100114.59
2023-05-23T06:23:16.460Z,100114.59
2023-05-23T06:25:45.200Z,100113.72
2023-05-23T06:28:13.183Z,100116.16
2023-05-23T06:30:40.532Z,100122.00
2023-05-23T06:33:08.738Z,100118.53
2023-05-23T06:35:36.247Z,100112.44
2023-05-23T06:38:03.371Z,100120.03
2023-05-23T06:40:30.481Z,100110.59
2023-05-23T06:42:57.515Z,100113.09
2023-05-23T06:45:54.406Z,100124.13
2023-05-23T06:48:21.569Z,100122.38
2023-05-23T06:50:49.609Z,100131.72
2023-05-23T06:53:19.084Z,100129.16
2023-05-23T06:55:47.466Z,100135.09
2023-05-23T06:58:17.795Z,100132.53
2023-05-23T07:00:44.915Z,100135.00
2023-05-23T07:03:32.758Z,100134.19
2023-05-23T07:06:08.243Z,100140.09
2023-05-23T07:08:35.676Z,100140.88
2023-05-23T07:11:06.310Z,100142.59
2023-05-23T07:13:39.115Z,100136.56
2023-05-23T07:16:06.673Z,100144.16
2023-05-23T07:18:38.661Z,100151.75
2023-05-23T07:21:06.253Z,100152.63
2023-05-23T07:23:36.910Z,100150.84
2023-05-23T07:26:04.925Z,100156.84
2023-05-23T07:28:40.648Z,100158.50
2023-05-23T07:31:09.938Z,100151.72
2023-05-23T07:33:38.134Z,100161.06
2023-05-23T07:36:07.153Z,100157.66
2023-05-23T07:38:34.310Z,100150.06
2023-05-23T07:41:10.554Z,100151.81
2023-05-23T07:43:39.197Z,100160.47
2023-05-23T07:46:06.853Z,100158.00
2023-05-23T07:48:34.040Z,100159.78
2023-05-23T07:51:01.528Z,100168.38
2023-05-23T07:53:29.234Z,100171.84
2023-05-23T07:55:56.847Z,100164.25
2023-05-23T07:58:26.977Z,100174.56
2023-05-23T08:00:54.112Z,100169.56
2023-05-23T08:03:41.182Z,100170.47
2023-05-23T08:06:14.502Z,100171.38
2023-05-23T08:08:43.674Z,100174.78
2023-05-23T08:11:30.362Z,100172.22
2023-05-23T08:13:59.475Z,100177.25
2023-05-23T08:16:37.604Z,100177.06
2023-05-23T08:19:08.873Z,100183.81
2023-05-23T08:21:36.577Z,100176.91
2023-05-23T08:24:04.091Z,100187.19
2023-05-23T08:26:34.921Z,100187.28
2023-05-23T08:29:03.867Z,100191.66
2023-05-23T08:31:33.636Z,100206.31
2023-05-23T08:34:01.744Z,100201.31
2023-05-23T08:36:29.966Z,100201.28
2023-05-23T08:38:57.054Z,100196.09
2023-05-23T08:41:30.886Z,100195.97
2023-05-23T08:44:03.071Z,100204.38
2023-05-23T08:46:44.377Z,100205.09
2023-05-23T08:49:14.266Z,100199.84
2023-05-23T08:51:44.017Z,100210.91
2023-05-23T08:54:17.118Z,100207.44
2023-05-23T08:56:44.969Z,100202.22
2023-05-23T08:59:15.234Z,100213.19
2023-05-23T09:01:46.106Z,100219.34
2023-05-23T09:04:14.712Z,100229.78
2023-05-23T09:06:57.334Z,100228.25
2023-05-23T09:09:25.724Z,100235.25
2023-05-23T09:11:55.484Z,100233.78
2023-05-23T09:14:22.900Z,100232.25
2023-05-23T09:17:04.227Z,100239.25
2023-05-23T09:19:31.997Z,100236.78
2023-05-23T09:22:09.056Z,100236.81
2023-05-23T09:24:46.532Z,100237.69
2023-05-23T09:27:14.245Z,100231.66
2023-05-23T09:29:41.363Z,100233.72
2023-05-23T09:32:13.576Z,100244.63
2023-05-23T09:35:04.047Z,100249.56
2023-05-23T09:37:33.852Z,100248.50
2023-05-23T09:40:06.362Z,100251.69
2023-05-23T09:42:34.269Z,100252.31
2023-05-23T09:45:04.138Z,100257.25
2023-05-23T09:47:32.355Z,100261.31
2023-05-23T09:49:59.464Z,100249.09
2023-05-23T09:52:26.931Z,100255.44
2023-05-23T09:54:54.730Z,100260.00
2023-05-23T09:57:23.506Z,100251.47
2023-05-23T09:59:56.398Z,100244.84
2023-05-23T10:02:55.165Z,100260.59
2023-05-23T10:05:33.075Z,100262.44
2023-05-23T10:08:05.027Z,100258.22
2023-05-23T10:10:33.801Z,100267.59
2023-05-23T10:13:04.992Z,100267.56
2023-05-23T10:15:40.345Z,100261.63
2023-05-23T10:18:19.257Z,100269.09
2023-05-23T10:20:52.784Z,100261.03
2023-05-23T10:23:21.190Z,100268.31
2023-05-23T10:25:49.008Z,100269.56
2023-05-23T10:28:16.636Z,100267.25
2023-05-23T10:30:45.861Z,100267.47
2023-05-23T10:33:16.966Z,100270.84
2023-05-23T10:36:21.737Z,100262.88
2023-05-23T10:38:56.275Z,100272.19
2023-05-23T10:41:29.009Z,100263.06
2023-05-23T10:44:15.811Z,100269.91
2023-05-23T10:46:55.570Z,100266.91
2023-05-23T10:49:37.679Z,100265.69
2023-05-23T10:52:05.070Z,100267.56
2023-05-23T10:54:50.242Z,100264.34
2023-05-23T10:57:21.004Z,100252.75
2023-05-23T10:59:51.082Z,100260.94
2023-05-23T11:02:29.483Z,100255.31
2023-05-23T11:05:19.844Z,100256.81
2023-05-23T11:07:46.952Z,100253.50
2023-05-23T11:10:14.510Z,100255.47
2023-05-23T11:12:44.751Z,100256.50
2023-05-23T11:15:17.571Z,100253.97
2023-05-23T11:17:56.677Z,100248.38
2023-05-23T11:20:28.338Z,100252.91
2023-05-23T11:23:03.964Z,100260.88
2023-05-23T11:25:48.902Z,100263.56
2023-05-23T11:28:17.258Z,100266.34
2023-05-23T11:30:48.014Z,100270.66
2023-05-23T11:33:17.083Z,100263.34
2023-05-23T11:35:47.942Z,100258.31
2023-05-23T11:38:16.784Z,100263.56
2023-05-23T11:40:46.664Z,100268.75
2023-05-23T11:43:18.240Z,100265.44
2023-05-23T11:45:48.538Z,100269.63
2023-05-23T11:48:17.705Z,100261.31
2023-05-23T11:50:47.859Z,100259.59
2023-05-23T11:53:18.923Z,100250.84
2023-05-23T11:55:58.453Z,100269.06
2023-05-23T11:58:38.015Z,100266.25
2023-05-23T12:01:08.685Z,100264.56
2023-05-23T12:03:49.168Z,100272.41
2023-05-23T12:06:18.991Z,100273.06
2023-05-23T12:08:47.564Z,100266.50
2023-05-23T12:11:15.085Z,100271.75
2023-05-23T12:13:42.853Z,100278.75
2023-05-23T12:16:11.186Z,100272.84
2023-05-23T12:18:38.514Z,100273.31
2023-05-23T12:21:08.309Z,100270.25
2023-05-23T12:23:36.500Z,100270.72
2023-05-23T12:26:08.042Z,100282.00
2023-05-23T12:28:45.109Z,100277.13
2023-05-23T12:31:16.044Z,100279.81
2023-05-23T12:33:45.244Z,100279.94
2023-05-23T12:36:12.870Z,100275.91
2023-05-23T12:38:45.245Z,100266.38
2023-05-23T12:41:20.346Z,100269.41
2023-05-23T12:43:53.090Z,100260.88
2023-05-23T12:46:25.094Z,100268.47
2023-05-23T12:48:53.605Z,100269.34
2023-05-23T12:51:21.722Z,100273.22
2023-05-23T12:53:48.872Z,100270.13
2023-05-23T12:56:16.000Z,100269.50
2023-05-23T12:58:43.741Z,100272.53
2023-05-23T13:01:11.265Z,100271.34
2023-05-23T13:03:39.731Z,100263.22
2023-05-23T13:06:10.866Z,100273.81
2023-05-23T13:08:38.131Z,100263.97
2023-05-23T13:11:05.635Z,100275.94
2023-05-23T13:13:33.676Z,100283.47
2023-05-23T13:16:00.876Z,100283.53
2023-05-23T13:18:27.889Z,100265.81
2023-05-23T13:20:55.008Z,100266.22
2023-05-23T13:23:22.026Z,100270.72
2023-05-23T13:25:51.135Z,100273.47
2023-05-23T13:28:18.676Z,100266.25
2023-05-23T13:30:47.334Z,100274.00
2023-05-23T13:33:14.776Z,100277.44
2023-05-23T13:35:42.040Z,100281.63
2023-05-23T13:38:09.795Z,100273.66
2023-05-23T13:40:36.941Z,100281.09
2023-05-23T13:43:03.956Z,100284.47
2023-05-23T13:45:31.057Z,100278.50
2023-05-23T13:47:58.165Z,100292.00
2023-05-23T13:50:25.219Z,100281.72
2023-05-23T13:52:52.287Z,100276.91
2023-05-23T13:55:19.326Z,100281.53
2023-05-23T13:57:46.676Z,100281.78
2023-05-23T14:00:14.660Z,100268.84
2023-05-23T14:02:42.209Z,100270.31
2023-05-23T14:05:09.785Z,100275.84
2023-05-23T14:07:36.857Z,100283.06
2023-05-23T14:10:05.097Z,100264.31
2023-05-23T14:12:32.632Z,100266.06
2023-05-23T14:14:59.621Z,100266.72
2023-05-23T14:17:27.310Z,100267.34
2023-05-23T14:19:54.310Z,100267.00
2023-05-23T14:22:21.393Z,100261.75
2023-05-23T14:24:48.613Z,100267.91
2023-05-23T14:27:15.669Z,100267.81
2023-05-23T14:29:46.352Z,100259.91
2023-05-23T14:32:13.713Z,100260.53
2023-05-23T14:34:41.434Z,100262.06
2023-05-23T14:37:08.569Z,100257.44
2023-05-23T14:39:36.069Z,100262.25
2023-05-23T14:42:03.749Z,100260.78
2023-05-23T14:44:31.010Z,100255.81
2023-05-23T14:46:58.179Z,100246.03
2023-05-23T14:49:25.179Z,100244.81
2023-05-23T14:51:52.291Z,100243.47
2023-05-23T14:54:19.933Z,100250.53
2023-05-23T14:56:47.136Z,100238.19
2023-05-23T14:59:15.113Z,100248.31
2023-05-23T15:01:42.366Z,100250.91
2023-05-23T15:04:10.171Z,100253.50
2023-05-23T15:06:39.090Z,100244.88
2023-05-23T15:09:07.423Z,100253.69
2023-05-23T15:11:38.959Z,100240.16
2023-05-23T15:14:06.291Z,100241.41
2023-05-23T15:16:35.041Z,100239.34
2023-05-23T15:19:02.491Z,100233.06
2023-05-23T15:21:29.856Z,100228.47
2023-05-23T15:23:57.801Z,100241.09
2023-05-23T15:26:25.515Z,100242.47
2023-05-23T15:28:52.508Z,100245.63
2023-05-23T15:31:19.717Z,100236.75
2023-05-23T15:33:47.784Z,100229.44
2023-05-23T15:36:14.983Z,100225.09
2023-05-23T15:38:42.305Z,100223.28
2023-05-23T15:41:10.470Z,100220.41
2023-05-23T15:43:37.764Z,100214.25
2023-05-23T15:46:05.456Z,100216.63
2023-05-23T15:48:32.594Z,100218.13
2023-05-23T15:50:59.595Z,100218.94
2023-05-23T15:53:26.688Z,100220.88
2023-05-23T15:55:53.956Z,100224.03
2023-05-23T15:58:20.992Z,100229.06
2023-05-23T16:00:47.983Z,100229.00
2023-05-23T16:03:14.968Z,100228.78
2023-05-23T16:05:42.203Z,100230.97
2023-05-23T16:08:09.486Z,100229.72
2023-05-23T16:10:36.473Z,100224.19
2023-05-23T16:13:04.024Z,100236.50
2023-05-23T16:15:31.183Z,100235.97
2023-05-23T16:17:58.593Z,100239.91
2023-05-23T16:20:25.816Z,100238.03
2023-05-23T16:22:53.010Z,100232.75
2023-05-23T16:25:20.069Z,100232.50
2023-05-23T16:27:47.071Z,100238.34
2023-05-23T16:30:14.269Z,100233.03
2023-05-23T16:32:41.326Z,100234.56
2023-05-23T16:35:10.166Z,100225.72
2023-05-23T16:37:38.463Z,100231.53
2023-05-23T16:40:07.034Z,100221.88
2023-05-23T16:42:34.022Z,100226.75
2023-05-23T16:45:01.172Z,100232.44
2023-05-23T16:47:28.253Z,100233.69
2023-05-23T16:49:55.335Z,100224.78
2023-05-23T16:52:22.522Z,100224.41
2023-05-23T16:54:49.662Z,100220.50
2023-05-23T16:57:16.698Z,100225.97
2023-05-23T16:59:43.728Z,100227.00
2023-05-23T17:02:14.834Z,100236.72
2023-05-23T17:04:41.987Z,100239.59
2023-05-23T17:07:09.477Z,100228.69
2023-05-23T17:09:37.134Z,100234.97
2023-05-23T17:12:04.597Z,100239.47
2023-05-23T17:14:31.904Z,100247.47
2023-05-23T17:16:58.935Z,100248.56
2023-05-23T17:19:27.048Z,100242.66
2023-05-23T17:21:54.067Z,100251.31
2023-05-23T17:24:21.077Z,100250.59
2023-05-23T17:26:48.134Z,100247.47
2023-05-23T17:29:17.174Z,100253.69
2023-05-23T17:31:44.468Z,100252.19
2023-05-23T17:34:12.592Z,100250.91
2023-05-23T17:36:39.558Z,100256.22
2023-05-23T17:39:06.943Z,100251.31
2023-05-23T17:41:33.964Z,100259.16
2023-05-23T17:44:02.525Z,100257.50
2023-05-23T17:46:29.786Z,100250.88
2023-05-23T17:48:56.824Z,100259.59
2023-05-23T17:51:23.928Z,100261.53
2023-05-23T17:53:53.567Z,100273.81
2023-05-23T17:56:23.202Z,100280.09
2023-05-23T17:58:50.317Z,100280.47
2023-05-23T18:01:17.519Z,100275.66
2023-05-23T18:03:44.832Z,100274.22
2023-05-23T18:06:12.086Z,100277.84
2023-05-23T18:08:40.810Z,100279.66
2023-05-23T18:11:07.876Z,100277.03
2023-05-23T18:13:34.882Z,100274.59
2023-05-23T18:16:02.109Z,100280.72
2023-05-23T18:18:29.489Z,100280.84
2023-05-23T18:20:56.850Z,100275.84
2023-05-23T18:23:23.890Z,100281.94
2023-05-23T18:25:50.897Z,100291.41
2023-05-23T18:28:17.939Z,100289.78
2023-05-23T18:30:45.184Z,100293.28
2023-05-23T18:33:12.483Z,100287.41
2023-05-23T18:35:39.853Z,100288.41
2023-05-23T18:38:07.343Z,100292.84
2023-05-23T18:40:34.375Z,100293.03
2023-05-23T18:43:01.413Z,100288.03
2023-05-23T18:45:28.600Z,100294.13
2023-05-23T18:47:55.977Z,100301.09
2023-05-23T18:50:23.699Z,100301.28
2023-05-23T18:52:50.778Z,100302.31
2023-05-23T18:55:17.952Z,100309.28
2023-05-23T18:57:45.052Z,100312.91
2023-05-23T19:00:13.114Z,100317.34
2023-05-23T19:02:44.225Z,100322.63
2023-05-23T19:05:12.681Z,100323.59
2023-05-23T19:07:39.895Z,100328.00
2023-05-23T19:10:07.589Z,100321.34
2023-05-23T19:12:34.712Z,100330.81
2023-05-23T19:15:01.856Z,100330.94
2023-05-23T19:17:30.926Z,100344.66
2023-05-23T19:19:58.046Z,100342.16
2023-05-23T19:22:26.548Z,100348.22
2023-05-23T19:24:55.034Z,100344.00
2023-05-23T19:27:22.050Z,100348.34
2023-05-23T19:29:49.454Z,100350.97
2023-05-23T19:32:17.169Z,100356.19
2023-05-23T19:34:44.421Z,100351.16
2023-05-23T19:37:11.567Z,100351.25
2023-05-23T19:39:38.640Z,100348.75
2023-05-23T19:42:06.053Z,100353.91
2023-05-23T19:44:33.133Z,100354.03
2023-05-23T19:47:00.369Z,100365.16
2023-05-23T19:49:27.504Z,100362.66
2023-05-23T19:51:54.567Z,100361.06
2023-05-23T19:54:22.974Z,100355.13
2023-05-23T19:56:50.340Z,100367.09
2023-05-23T19:59:17.391Z,100371.38
2023-05-23T20:01:44.439Z,100372.28
2023-05-23T20:04:12.948Z,100375.72
2023-05-23T20:06:40.129Z,100383.41
2023-05-23T20:09:07.615Z,100388.53
2023-05-23T20:11:35.331Z,100392.81
2023-05-23T20:14:02.319Z,100392.00
2023-05-23T20:16:29.382Z,100391.19
2023-05-23T20:18:56.493Z,100397.16
2023-05-23T20:21:23.517Z,100405.63
2023-05-23T20:23:50.494Z,100410.75
2023-05-23T20:26:18.489Z,100404.81
2023-05-23T20:28:46.028Z,100411.66
2023-05-23T20:31:13.244Z,100417.59
2023-05-23T20:33:40.329Z,100415.06
2023-05-23T20:36:07.695Z,100420.16
2023-05-23T20:38:35.370Z,100416.81
2023-05-23T20:41:07.419Z,100426.16
2023-05-23T20:43:37.264Z,100429.56
2023-05-23T20:46:07.027Z,100432.09
2023-05-23T20:48:34.066Z,100436.38
2023-05-23T20:51:01.866Z,100444.00
2023-05-23T20:53:31.296Z,100433.00
2023-05-23T20:55:58.387Z,100438.94
2023-05-23T20:58:25.389Z,100446.59
2023-05-23T21:00:52.516Z,100444.84
2023-05-23T21:03:20.473Z,100459.31
2023-05-23T21:05:47.599Z,100448.28
2023-05-23T21:08:14.653Z,100451.69
2023-05-23T21:10:42.019Z,100455.09
2023-05-23T21:13:09.338Z,100454.25
2023-05-23T21:15:36.366Z,100446.63
2023-05-23T21:18:03.486Z,100458.50
2023-05-23T21:20:30.658Z,100464.44
2023-05-23T21:22:57.647Z,100447.47
2023-05-23T21:25:24.965Z,100457.69
2023-05-23T21:27:52.388Z,100469.53
2023-05-23T21:30:19.722Z,100470.41
2023-05-23T21:32:47.073Z,100470.41
2023-05-23T21:35:14.086Z,100465.31
2023-05-23T21:37:41.133Z,100465.31
2023-05-23T21:40:09.536Z,100461.94
2023-05-23T21:42:36.558Z,100467.84
2023-05-23T21:45:04.029Z,100467.88
2023-05-23T21:47:31.261Z,100466.19
2023-05-23T21:49:58.389Z,100486.50
2023-05-23T21:52:25.420Z,100470.38
2023-05-23T21:54:52.744Z,100478.88
2023-05-23T21:57:20.421Z,100481.38
2023-05-23T21:59:47.507Z,100474.59
2023-05-23T22:02:14.514Z,100473.75
2023-05-23T22:04:41.563Z,100472.06
2023-05-23T22:07:08.574Z,100474.53
2023-05-23T22:09:35.723Z,100476.25
2023-05-23T22:12:02.903Z,100466.91
2023-05-23T22:14:30.021Z,100470.31
2023-05-23T22:16:59.040Z,100467.72
2023-05-23T22:19:26.218Z,100466.88
2023-05-23T22:21:53.332Z,100470.25
2023-05-23T22:24:20.555Z,100461.75
2023-05-23T22:26:47.610Z,100465.16
2023-05-23T22:29:14.659Z,100462.59
2023-05-23T22:31:41.871Z,100455.81
2023-05-23T22:34:08.866Z,100457.50
2023-05-23T22:36:36.466Z,100454.06
2023-05-23T22:39:05.315Z,100461.69
2023-05-23T22:41:32.474Z,100459.97
2023-05-23T22:43:59.558Z,100464.22
2023-05-23T22:46:26.668Z,100469.25
2023-05-23T22:48:55.218Z,100459.91
2023-05-23T22:51:22.582Z,100464.97
2023-05-23T22:53:49.571Z,100467.50
2023-05-23T22:56:17.486Z,100458.16
2023-05-23T22:58:44.522Z,100456.47
2023-05-23T23:01:11.622Z,100456.47
2023-05-23T23:03:38.661Z,100455.59
2023-05-23T23:06:06.220Z,100450.50
2023-05-23T23:08:34.008Z,100455.53
2023-05-23T23:11:01.114Z,100445.38
2023-05-23T23:13:28.312Z,100448.75
2023-05-23T23:15:55.467Z,100451.25
2023-05-23T23:18:22.458Z,100440.25
2023-05-23T23:20:49.507Z,100443.59
2023-05-23T23:23:16.889Z,100441.91
2023-05-23T23:25:49.869Z,100446.94
2023-05-23T23:28:17.723Z,100455.38
2023-05-23T23:30:44.947Z,100448.59
2023-05-23T23:33:12.676Z,100444.31
2023-05-23T23:35:40.009Z,100453.63
2023-05-23T23:38:07.196Z,100450.22
2023-05-23T23:40:34.204Z,100463.72
2023-05-23T23:43:01.254Z,100457.78
2023-05-23T23:45:28.240Z,100459.47
2023-05-23T23:47:55.460Z,100458.59
2023-05-23T23:50:22.525Z,100467.00
2023-05-23T23:52:49.912Z,100466.97
2023-05-23T23:55:24.714Z,100465.25
2023-05-23T23:57:51.769Z,100466.97
